Time;durP1;ratioP1;P1;durP2;ratioP2;P2;SDS_P1;SDS_P2;PMS_P1;PMS_P2;Temp;Humidity;BMP_temperature;BMP_pressure;BME280_temperature;BME280_humidity;BME280_pressure;Samples;Min_cycle;Max_cycle;Signal;HPM_P1;HPM_P2
2023/10/05 00:01:05;;;;;;;16.23;9.20;;;;;;;16.96;78.66;95651.66;5073405;28;20807;-78
2023/10/05 00:03:33;;;;;;;17.30;10.07;;;;;;;16.97;78.60;95657.81;5073355;28;20927;-78
2023/10/05 00:06:04;;;;;;;9.77;8.03;;;;;;;16.96;79.26;95653.50;5073146;28;20476;-79
2023/10/05 00:08:35;;;;;;;16.10;8.90;;;;;;;16.89;78.96;95653.25;5073170;28;20923;-78
2023/10/05 00:11:06;;;;;;;11.53;9.27;;;;;;;16.90;79.22;95651.44;5073436;28;20451;-78
2023/10/05 00:13:35;;;;;;;12.47;9.33;;;;;;;16.89;79.41;95647.13;5073629;28;20471;-79
2023/10/05 00:16:05;;;;;;;13.63;8.90;;;;;;;16.84;79.47;95654.69;5073161;28;20504;-78
2023/10/05 00:18:33;;;;;;;13.50;9.27;;;;;;;16.82;79.65;95651.38;5073110;28;20440;-78
2023/10/05 00:21:00;;;;;;;12.07;8.40;;;;;;;16.79;78.94;95652.50;5073048;28;20491;-78
2023/10/05 00:23:29;;;;;;;12.10;9.10;;;;;;;16.74;79.21;95652.09;5073266;28;20436;-78
2023/10/05 00:25:56;;;;;;;11.27;7.73;;;;;;;16.72;79.64;95652.25;5073045;28;20858;-78
2023/10/05 00:28:25;;;;;;;11.67;9.67;;;;;;;16.67;80.13;95643.91;5054122;28;20868;-78
2023/10/05 00:30:55;;;;;;;13.87;10.23;;;;;;;16.66;80.50;95658.13;5072999;28;20447;-78
2023/10/05 00:33:23;;;;;;;12.73;9.00;;;;;;;16.66;80.64;95652.00;5072728;28;20481;-78
2023/10/05 00:35:50;;;;;;;11.50;8.97;;;;;;;16.57;81.21;95653.69;5072564;28;20481;-78
2023/10/05 00:38:18;;;;;;;11.73;8.63;;;;;;;16.55;80.91;95658.31;5072664;28;20450;-78
2023/10/05 00:40:56;;;;;;;10.00;8.70;;;;;;;16.60;81.61;95658.72;5073095;28;20443;-78
2023/10/05 00:43:24;;;;;;;11.20;8.60;;;;;;;16.65;82.42;95661.75;5072497;28;20808;-78
2023/10/05 00:45:53;;;;;;;15.37;8.43;;;;;;;16.65;81.33;95666.22;5073162;28;20844;-78
2023/10/05 00:48:29;;;;;;;12.63;9.07;;;;;;;16.64;81.28;95660.06;5072709;28;20447;-78
2023/10/05 00:50:59;;;;;;;16.43;9.97;;;;;;;16.66;81.58;95657.31;5040490;28;20471;-78
2023/10/05 00:53:28;;;;;;;13.07;9.13;;;;;;;16.68;81.05;95661.47;5073309;28;20450;-79
2023/10/05 00:56:07;;;;;;;14.87;8.90;;;;;;;16.71;81.64;95653.22;5072638;28;20582;-79
2023/10/05 00:58:42;;;;;;;16.33;9.40;;;;;;;16.76;81.51;95654.59;5072338;28;21012;-79
2023/10/05 01:01:15;;;;;;;13.70;9.50;;;;;;;16.72;80.12;95646.94;5072299;28;20458;-79
2023/10/05 01:04:11;;;;;;;15.50;9.50;;;;;;;16.58;81.17;95651.88;5072162;28;20440;-78
2023/10/05 01:06:40;;;;;;;16.30;9.67;;;;;;;16.57;80.62;95642.28;5072029;28;20472;-78
2023/10/05 01:09:14;;;;;;;18.63;9.30;;;;;;;16.58;80.62;95643.94;5072433;28;20428;-79
2023/10/05 01:11:43;;;;;;;17.00;9.30;;;;;;;16.53;81.07;95647.03;5072082;28;20441;-78
2023/10/05 01:14:15;;;;;;;12.27;9.37;;;;;;;16.53;81.03;95647.03;5071904;28;20836;-79
2023/10/05 01:16:45;;;;;;;16.70;9.27;;;;;;;16.48;80.83;95648.44;5072166;28;20505;-78
2023/10/05 01:19:12;;;;;;;14.50;9.27;;;;;;;16.49;81.18;95645.66;5071891;28;20509;-78
2023/10/05 01:21:42;;;;;;;10.53;8.90;;;;;;;16.47;81.13;95647.59;5071943;28;20441;-78
2023/10/05 01:24:10;;;;;;;12.90;9.90;;;;;;;16.44;81.52;95647.91;5072162;28;20445;-78
2023/10/05 01:26:38;;;;;;;16.73;10.00;;;;;;;16.42;82.15;95649.88;5071900;28;20875;-78
2023/10/05 01:29:06;;;;;;;12.27;9.20;;;;;;;16.42;82.45;95647.22;5072136;28;20443;-78
2023/10/05 01:31:33;;;;;;;13.83;10.00;;;;;;;16.47;82.16;95647.59;5071828;28;20441;-78
2023/10/05 01:34:01;;;;;;;10.20;8.53;;;;;;;16.51;82.13;95632.28;5036553;28;20449;-78
2023/10/05 01:36:28;;;;;;;19.77;10.03;;;;;;;16.53;81.99;95641.75;5071864;28;20476;-78
2023/10/05 01:39:07;;;;;;;16.27;10.10;;;;;;;16.49;82.10;95629.78;5071681;28;20442;-78
2023/10/05 01:41:37;;;;;;;11.10;9.63;;;;;;;16.50;81.72;95638.56;5071026;28;20441;-78
2023/10/05 01:44:04;;;;;;;13.70;9.27;;;;;;;16.45;81.88;95631.03;5003736;28;20433;-78
2023/10/05 01:46:32;;;;;;;11.87;8.57;;;;;;;16.49;82.37;95635.06;5071744;28;20460;-78
2023/10/05 01:48:59;;;;;;;13.20;9.20;;;;;;;16.45;82.02;95631.03;5071580;28;20935;-78
2023/10/05 01:51:26;;;;;;;12.50;9.50;;;;;;;16.41;82.05;95629.66;5071473;28;20890;-78
2023/10/05 01:53:59;;;;;;;13.30;9.23;;;;;;;16.34;82.74;95634.72;5071578;28;20433;-78
2023/10/05 01:56:29;;;;;;;15.93;9.63;;;;;;;16.30;82.63;95630.69;5071627;28;20484;-79
2023/10/05 01:58:59;;;;;;;16.07;10.10;;;;;;;16.33;83.49;95634.88;5071564;28;20448;-79
2023/10/05 02:01:28;;;;;;;15.23;10.67;;;;;;;16.27;82.88;95633.66;5071761;28;20440;-78
2023/10/05 02:03:57;;;;;;;11.83;9.33;;;;;;;16.23;82.73;95636.72;5071716;28;20444;-78
2023/10/05 02:06:28;;;;;;;14.20;9.10;;;;;;;16.14;83.11;95627.00;5071812;28;20439;-79
2023/10/05 02:08:55;;;;;;;12.67;9.30;;;;;;;16.15;84.04;95636.59;5071858;28;20450;-78
2023/10/05 02:11:24;;;;;;;12.83;9.67;;;;;;;16.20;83.57;95635.22;5071480;28;20497;-78
2023/10/05 02:13:52;;;;;;;11.13;9.57;;;;;;;16.23;83.84;95636.72;5071711;28;20580;-77
2023/10/05 02:16:22;;;;;;;14.27;9.70;;;;;;;16.23;84.63;95636.72;5071516;28;20494;-78
2023/10/05 02:18:49;;;;;;;16.80;10.23;;;;;;;16.24;83.95;95643.69;5071332;28;20459;-78
2023/10/05 02:21:28;;;;;;;14.17;10.00;;;;;;;16.25;83.73;95640.06;5071430;28;20470;-78
2023/10/05 02:23:57;;;;;;;13.33;9.17;;;;;;;16.21;83.66;95636.88;5071113;28;20454;-78
2023/10/05 02:26:33;;;;;;;11.20;8.33;;;;;;;16.23;84.02;95642.03;5071593;28;20469;-78
2023/10/05 02:29:00;;;;;;;18.03;11.80;;;;;;;16.31;83.95;95642.97;5071326;28;20459;-78
2023/10/05 02:31:28;;;;;;;13.10;10.10;;;;;;;16.34;84.35;95645.31;5071372;28;20442;-78
2023/10/05 02:33:56;;;;;;;15.93;10.40;;;;;;;16.34;83.24;95647.97;5071391;28;20500;-77
2023/10/05 02:36:26;;;;;;;13.40;9.47;;;;;;;16.37;83.09;95644.19;5071526;28;20570;-78
2023/10/05 02:38:54;;;;;;;13.23;10.33;;;;;;;16.37;82.85;95657.44;5037123;28;20537;-78
2023/10/05 02:41:26;;;;;;;11.97;8.73;;;;;;;16.37;82.62;95649.47;5071579;28;20502;-78
2023/10/05 02:43:53;;;;;;;11.30;8.70;;;;;;;16.38;82.28;95651.16;5071448;28;20506;-78
2023/10/05 02:46:24;;;;;;;12.67;8.93;;;;;;;16.34;82.75;95647.13;5071272;28;20474;-78
2023/10/05 02:48:52;;;;;;;14.40;10.10;;;;;;;16.36;82.72;95645.16;5071366;28;20450;-78
2023/10/05 02:51:20;;;;;;;12.20;9.43;;;;;;;16.35;82.75;95656.75;5070917;28;20453;-78
2023/10/05 02:53:47;;;;;;;11.20;9.33;;;;;;;16.34;82.88;95652.41;5072461;28;20441;-79
2023/10/05 02:56:17;;;;;;;11.23;8.70;;;;;;;16.28;82.65;95653.84;5074830;28;20490;-79
2023/10/05 02:58:44;;;;;;;15.80;8.87;;;;;;;16.26;83.05;95654.97;5074735;28;20450;-79
2023/10/05 03:01:12;;;;;;;10.93;9.80;;;;;;;16.19;83.04;95648.56;5055746;28;20515;-78
2023/10/05 03:03:38;;;;;;;15.10;9.90;;;;;;;16.21;83.87;95657.25;5074797;28;20443;-78
2023/10/05 03:06:09;;;;;;;14.87;9.70;;;;;;;16.19;83.64;95648.56;5074312;28;20449;-78
2023/10/05 03:08:36;;;;;;;16.17;10.60;;;;;;;16.21;83.34;95651.94;5039299;28;20441;-78
2023/10/05 03:11:03;;;;;;;15.57;10.57;;;;;;;16.21;83.44;95647.47;5074377;28;20440;-79
2023/10/05 03:13:31;;;;;;;13.80;8.87;;;;;;;16.22;83.81;95657.09;5074450;28;20496;-77
2023/10/05 03:16:00;;;;;;;11.90;9.40;;;;;;;16.18;83.78;95652.19;5074043;28;20492;-79
2023/10/05 03:18:27;;;;;;;16.80;10.33;;;;;;;16.19;83.48;95652.09;5074436;28;20834;-78
2023/10/05 03:20:54;;;;;;;15.37;10.50;;;;;;;16.19;83.64;95651.22;5074230;28;20469;-78
2023/10/05 03:23:22;;;;;;;11.77;9.23;;;;;;;16.24;83.20;95646.34;5074905;28;20447;-78
2023/10/05 03:25:53;;;;;;;13.07;10.50;;;;;;;16.25;82.35;95650.66;5074905;28;20443;-79
2023/10/05 03:28:19;;;;;;;16.53;10.63;;;;;;;16.25;82.77;95654.16;5074628;28;20530;-76
2023/10/05 03:30:49;;;;;;;16.30;10.67;;;;;;;16.25;82.59;95648.00;5036092;28;20446;-76
2023/10/05 03:33:17;;;;;;;15.00;10.10;;;;;;;16.24;83.01;95654.28;5074103;28;20454;-77
2023/10/05 03:35:45;;;;;;;12.50;9.60;;;;;;;16.19;83.59;95654.72;5074470;28;20919;-77
2023/10/05 03:38:19;;;;;;;19.83;12.43;;;;;;;16.21;84.00;95659.88;5074657;28;20502;-76
2023/10/05 03:40:47;;;;;;;17.13;11.43;;;;;;;16.18;83.93;95660.16;5074387;28;20452;-74
2023/10/05 03:43:14;;;;;;;13.17;10.60;;;;;;;16.15;83.94;95663.09;5074439;28;20451;-77
2023/10/05 03:45:41;;;;;;;11.13;9.70;;;;;;;16.13;84.46;95665.03;5074679;28;20440;-79
2023/10/05 03:48:10;;;;;;;18.20;10.30;;;;;;;16.20;86.46;95658.22;5074449;28;20444;-79
2023/10/05 03:50:37;;;;;;;13.10;9.33;;;;;;;16.24;85.72;95662.22;5074401;28;20484;-79
2023/10/05 03:53:15;;;;;;;15.17;10.83;;;;;;;16.32;87.57;95665.81;5074393;28;20452;-79
2023/10/05 03:55:42;;;;;;;15.70;9.63;;;;;;;16.27;86.38;95656.66;5053353;28;20431;-78
2023/10/05 03:58:10;;;;;;;16.20;10.67;;;;;;;16.30;86.85;95667.78;5065520;28;20508;-79
2023/10/05 04:00:41;;;;;;;21.10;10.53;;;;;;;16.31;86.77;95668.63;5065665;28;20445;-81
2023/10/05 04:03:09;;;;;;;18.00;10.23;;;;;;;16.30;87.90;95667.78;5054435;28;20482;-78
2023/10/05 04:05:41;;;;;;;16.20;10.23;;;;;;;16.32;87.34;95670.28;5063525;28;20527;-79
2023/10/05 04:08:12;;;;;;;21.43;10.80;;;;;;;16.28;86.10;95674.19;5061536;28;20456;-79
2023/10/05 04:10:46;;;;;;;23.57;12.37;;;;;;;16.25;86.12;95680.63;5054100;28;20529;-80
2023/10/05 04:13:16;;;;;;;20.63;10.40;;;;;;;16.13;85.14;95670.34;5073483;28;20443;-80
2023/10/05 04:15:43;;;;;;;14.53;11.27;;;;;;;16.13;85.98;95667.69;5072714;28;21041;-79
2023/10/05 04:18:14;;;;;;;18.27;10.57;;;;;;;16.09;86.48;95669.81;5072944;28;20486;-79
2023/10/05 04:20:43;;;;;;;16.57;10.40;;;;;;;16.03;85.53;95659.78;5039365;28;20439;-79
2023/10/05 04:23:10;;;;;;;18.90;11.80;;;;;;;16.02;87.18;95669.56;5072948;28;20534;-79
2023/10/05 04:25:41;;;;;;;13.10;9.57;;;;;;;16.05;87.87;95674.56;5053718;28;20448;-80
2023/10/05 04:28:08;;;;;;;18.90;10.90;;;;;;;16.04;86.76;95674.69;5072720;28;20452;-80
2023/10/05 04:30:37;;;;;;;14.77;9.80;;;;;;;16.05;88.78;95674.56;5037829;28;20459;-80
2023/10/05 04:33:04;;;;;;;20.40;11.13;;;;;;;16.00;88.54;95670.69;5072685;28;20443;-80
2023/10/05 04:35:42;;;;;;;14.87;10.73;;;;;;;16.03;88.89;95671.22;5072949;28;20508;-79
2023/10/05 04:38:10;;;;;;;22.80;11.90;;;;;;;16.09;89.88;95683.88;5072669;28;20597;-79
2023/10/05 04:40:38;;;;;;;21.50;11.67;;;;;;;16.08;88.75;95684.84;4988865;28;20441;-79
2023/10/05 04:43:10;;;;;;;14.20;11.33;;;;;;;15.97;86.71;95682.38;5072501;28;20862;-79
2023/10/05 04:45:42;;;;;;;18.90;11.17;;;;;;;15.97;86.40;95687.69;5072408;28;20447;-80
2023/10/05 04:48:12;;;;;;;20.13;10.20;;;;;;;16.00;87.74;95686.56;5072513;28;20504;-79
2023/10/05 04:50:40;;;;;;;14.23;11.07;;;;;;;16.01;86.71;95696.16;5072419;28;20945;-80
2023/10/05 04:53:09;;;;;;;13.27;9.37;;;;;;;16.02;85.65;95703.97;5037226;28;20433;-79
2023/10/05 04:55:41;;;;;;;16.10;10.83;;;;;;;16.03;86.32;95707.44;5072095;28;21066;-80
2023/10/05 04:58:23;;;;;;;16.40;10.93;;;;;;;16.05;87.36;95701.03;5072310;28;20491;-79
2023/10/05 05:01:04;;;;;;;17.23;9.20;;;;;;;16.05;86.72;95711.63;5072094;28;20529;-79
2023/10/05 05:03:48;;;;;;;17.00;10.30;;;;;;;16.07;87.06;95717.59;5072247;28;21030;-79
2023/10/05 05:06:15;;;;;;;14.93;10.27;;;;;;;16.13;86.70;95716.19;5072027;28;20444;-79
2023/10/05 05:08:43;;;;;;;15.93;10.73;;;;;;;16.24;88.03;95720.50;5072345;28;20460;-79
2023/10/05 05:11:18;;;;;;;15.73;10.73;;;;;;;16.26;85.51;95727.31;5072114;28;21022;-79
2023/10/05 05:13:46;;;;;;;16.87;8.90;;;;;;;16.30;86.33;95722.56;5071935;28;20495;-79
2023/10/05 05:16:15;;;;;;;17.93;9.90;;;;;;;16.37;85.71;95721.00;5071578;28;20530;-79
2023/10/05 05:18:42;;;;;;;15.43;10.90;;;;;;;16.45;85.22;95725.56;5072264;28;20475;-80
2023/10/05 05:21:11;;;;;;;14.30;10.20;;;;;;;16.54;85.05;95728.19;5071980;28;20442;-79
2023/10/05 05:23:39;;;;;;;22.33;11.03;;;;;;;16.64;83.36;95728.97;5072286;28;20797;-81
2023/10/05 05:26:09;;;;;;;15.77;10.17;;;;;;;16.75;83.32;95727.13;5053606;28;20442;-80
2023/10/05 05:28:37;;;;;;;20.47;10.97;;;;;;;17.03;86.15;95728.78;5072786;28;20514;-80
2023/10/05 05:31:14;;;;;;;14.30;9.93;;;;;;;17.40;83.22;95735.81;5072941;28;20916;-79
2023/10/05 05:33:44;;;;;;;15.00;9.23;;;;;;;17.74;83.87;95728.88;5073020;28;20476;-79
2023/10/05 05:36:13;;;;;;;11.50;9.50;;;;;;;18.00;80.34;95722.75;5072663;28;20689;-79
2023/10/05 05:38:40;;;;;;;13.17;9.27;;;;;;;18.23;78.08;95737.22;5072747;28;20486;-81
2023/10/05 05:41:12;;;;;;;14.33;10.70;;;;;;;18.37;78.47;95733.97;5049850;28;20891;-80
2023/10/05 05:43:40;;;;;;;15.77;9.37;;;;;;;18.48;76.79;95744.31;5055652;28;20953;-81
2023/10/05 05:46:12;;;;;;;13.20;10.27;;;;;;;18.40;74.16;95746.94;5067408;28;20455;-80
2023/10/05 05:48:40;;;;;;;19.03;10.93;;;;;;;18.34;75.15;95750.22;5067536;28;20452;-81
2023/10/05 05:51:13;;;;;;;10.77;9.67;;;;;;;18.25;75.19;95748.50;5069156;28;20479;-80
2023/10/05 05:53:44;;;;;;;13.40;9.97;;;;;;;18.09;74.82;95748.38;5061193;28;20458;-80
2023/10/05 05:56:16;;;;;;;14.33;10.70;;;;;;;18.03;76.61;95749.84;5070989;28;20449;-80
2023/10/05 05:58:45;;;;;;;12.50;9.50;;;;;;;18.37;78.36;95751.72;5072405;28;20574;-80
2023/10/05 06:01:14;;;;;;;13.23;9.83;;;;;;;18.69;75.58;95753.75;5054756;28;21018;-81
2023/10/05 06:03:42;;;;;;;11.70;9.27;;;;;;;19.21;73.95;95754.47;5052307;28;20441;-80
2023/10/05 06:06:10;;;;;;;17.57;9.30;;;;;;;19.64;72.82;95753.41;5053732;28;20539;-80
2023/10/05 06:08:40;;;;;;;14.77;9.53;;;;;;;20.08;69.76;95751.28;5052479;28;20984;-80
2023/10/05 06:11:08;;;;;;;15.70;9.23;;;;;;;20.53;68.21;95757.06;5064390;28;20461;-80
2023/10/05 06:13:36;;;;;;;13.37;8.70;;;;;;;20.86;67.32;95760.50;5059745;28;20446;-80
2023/10/05 06:16:05;;;;;;;25.17;9.87;;;;;;;21.15;65.48;95759.91;5072431;28;20477;-80
2023/10/05 06:18:32;;;;;;;11.33;9.37;;;;;;;21.54;63.83;95755.38;5072039;28;21062;-80
2023/10/05 06:20:59;;;;;;;12.33;8.20;;;;;;;21.79;62.69;95764.06;5072248;28;20811;-80
2023/10/05 06:23:28;;;;;;;10.87;8.40;;;;;;;22.09;61.80;95759.69;5072261;28;20531;-80
2023/10/05 06:25:55;;;;;;;19.63;9.07;;;;;;;22.37;60.86;95762.63;5072742;28;20442;-80
2023/10/05 06:28:22;;;;;;;10.07;8.27;;;;;;;22.62;59.54;95765.06;5074682;28;20452;-81
2023/10/05 06:30:51;;;;;;;9.03;8.00;;;;;;;22.79;59.30;95763.84;5076246;28;20908;-81
2023/10/05 06:33:17;;;;;;;13.20;7.93;;;;;;;22.89;58.59;95760.97;5057629;28;20527;-80
2023/10/05 06:35:45;;;;;;;12.80;8.47;;;;;;;23.05;58.38;95772.28;5076086;28;20446;-80
2023/10/05 06:38:11;;;;;;;13.33;8.90;;;;;;;23.26;57.44;95765.34;5075598;28;20549;-80
2023/10/05 06:40:40;;;;;;;11.33;7.10;;;;;;;23.38;57.62;95766.53;5075808;28;20441;-80
2023/10/05 06:43:06;;;;;;;12.63;7.33;;;;;;;23.62;57.33;95762.72;5075780;28;20444;-81
2023/10/05 06:45:35;;;;;;;16.37;8.37;;;;;;;23.87;54.63;95763.19;5075806;28;20534;-81
2023/10/05 06:48:03;;;;;;;12.00;7.47;;;;;;;23.96;54.54;95762.88;5075804;28;20515;-80
2023/10/05 06:50:30;;;;;;;14.97;8.03;;;;;;;24.03;55.95;95766.47;5075875;28;20450;-81
2023/10/05 06:52:57;;;;;;;13.77;7.97;;;;;;;24.09;54.07;95763.00;5075940;28;20848;-80
2023/10/05 06:55:24;;;;;;;15.93;7.87;;;;;;;24.15;53.49;95764.09;5075852;28;20444;-81
2023/10/05 06:57:53;;;;;;;12.03;7.93;;;;;;;24.32;53.27;95759.31;5075492;28;20580;-80
2023/10/05 07:00:21;;;;;;;12.70;7.47;;;;;;;24.39;53.17;95755.66;5073489;28;20447;-81
2023/10/05 07:02:49;;;;;;;23.13;8.77;;;;;;;24.52;52.42;95754.91;5075265;28;20445;-81
2023/10/05 07:05:17;;;;;;;10.53;7.20;;;;;;;24.66;51.92;95755.84;5075467;28;20445;-81
2023/10/05 07:07:45;;;;;;;17.07;8.27;;;;;;;24.75;51.85;95751.16;5075175;28;20444;-81
2023/10/05 07:10:14;;;;;;;11.50;8.90;;;;;;;24.69;50.82;95748.25;5075355;28;20444;-80
2023/10/05 07:12:44;;;;;;;9.90;6.83;;;;;;;24.56;50.21;95745.44;5075746;28;20502;-82
2023/10/05 07:15:13;;;;;;;18.97;5.80;;;;;;;24.57;50.66;95747.09;5074925;28;20574;-80
2023/10/05 07:17:40;;;;;;;12.23;6.70;;;;;;;24.44;49.99;95762.28;5075255;28;20605;-82
2023/10/05 07:20:11;;;;;;;10.60;6.80;;;;;;;24.47;49.69;95760.03;5039888;28;20459;-81
2023/10/05 07:22:39;;;;;;;11.40;5.60;;;;;;;24.40;49.96;95760.00;5075472;28;20543;-79
2023/10/05 07:25:06;;;;;;;11.37;5.47;;;;;;;24.53;49.65;95761.13;5076248;28;20992;-79
2023/10/05 07:27:33;;;;;;;12.17;6.90;;;;;;;24.47;48.65;95757.38;5058405;28;20781;-81
2023/10/05 07:29:59;;;;;;;15.70;6.87;;;;;;;24.48;49.47;95753.66;5075036;28;20780;-79
2023/10/05 07:32:28;;;;;;;13.90;7.00;;;;;;;24.52;49.50;95754.09;5074940;28;20440;-80
2023/10/05 07:34:55;;;;;;;9.97;6.63;;;;;;;24.56;48.51;95745.44;5075018;28;20458;-79
2023/10/05 07:37:22;;;;;;;17.27;6.70;;;;;;;24.51;48.57;95752.44;5074786;28;20488;-79
2023/10/05 07:39:50;;;;;;;14.00;5.47;;;;;;;24.45;48.88;95751.38;5073647;28;20444;-79
2023/10/05 07:42:18;;;;;;;8.30;6.30;;;;;;;24.59;49.50;95745.09;5039765;28;20532;-79
2023/10/05 07:44:45;;;;;;;15.33;6.20;;;;;;;24.36;48.44;95760.59;5074654;28;20764;-78
2023/10/05 07:47:12;;;;;;;17.07;6.43;;;;;;;24.45;48.44;95753.22;5074560;28;20480;-79
2023/10/05 07:49:41;;;;;;;9.90;5.80;;;;;;;24.48;48.72;95752.81;5074519;28;20447;-78
2023/10/05 07:52:10;;;;;;;15.90;6.37;;;;;;;24.55;49.47;95751.00;5074765;28;20441;-78
2023/10/05 07:54:38;;;;;;;11.30;6.83;;;;;;;24.37;49.70;95752.34;5074418;28;20444;-79
2023/10/05 07:57:07;;;;;;;12.90;6.60;;;;;;;24.06;48.99;95751.84;5074202;28;20826;-81
2023/10/05 07:59:34;;;;;;;15.07;6.97;;;;;;;23.75;50.59;95752.16;5074399;28;20545;-82
2023/10/05 08:02:01;;;;;;;11.67;6.87;;;;;;;23.66;51.06;95743.38;5074034;28;20452;-78
2023/10/05 08:04:28;;;;;;;15.40;6.67;;;;;;;23.79;51.12;95748.91;5055600;28;20483;-79
2023/10/05 08:06:57;;;;;;;19.57;9.53;;;;;;;23.60;52.07;95738.78;5074051;28;20447;-79
2023/10/05 08:09:26;;;;;;;10.63;7.67;;;;;;;23.58;53.54;95745.34;5073871;28;20487;-78
2023/10/05 08:11:54;;;;;;;11.77;6.60;;;;;;;23.46;51.48;95739.66;5073882;28;20449;-78
2023/10/05 08:14:21;;;;;;;10.07;6.40;;;;;;;23.40;52.31;95727.81;5073523;28;20438;-78
2023/10/05 08:16:48;;;;;;;11.80;6.97;;;;;;;23.56;53.62;95731.31;5073610;28;20529;-79
2023/10/05 08:19:19;;;;;;;18.43;8.63;;;;;;;23.54;52.35;95733.34;5073490;28;20561;-79
2023/10/05 08:21:46;;;;;;;6.67;5.80;;;;;;;23.61;52.69;95728.91;5073729;28;20827;-79
2023/10/05 08:24:17;;;;;;;10.30;7.30;;;;;;;23.74;52.44;95731.72;5073647;28;20447;-79
2023/10/05 08:26:44;;;;;;;12.73;7.87;;;;;;;23.75;51.94;95720.00;5073489;28;20451;-79
2023/10/05 08:29:11;;;;;;;11.37;7.73;;;;;;;23.81;52.27;95719.22;5073373;28;20934;-79
2023/10/05 08:31:38;;;;;;;13.87;8.27;;;;;;;23.96;55.43;95716.44;5073804;28;20448;-79
2023/10/05 08:34:07;;;;;;;14.13;9.60;;;;;;;23.87;52.02;95713.09;5073398;28;20784;-78
2023/10/05 08:36:34;;;;;;;16.47;8.80;;;;;;;23.57;53.06;95715.06;5073557;28;20459;-79
2023/10/05 08:39:01;;;;;;;18.40;8.80;;;;;;;23.59;54.61;95715.69;5038170;28;20567;-79
2023/10/05 08:41:35;;;;;;;13.10;7.80;;;;;;;23.73;53.68;95722.03;5073311;28;20478;-79
2023/10/05 08:44:10;;;;;;;15.50;8.37;;;;;;;23.78;52.34;95720.44;5073409;28;20526;-78
2023/10/05 08:46:42;;;;;;;14.97;9.00;;;;;;;23.68;53.38;95719.91;5073402;28;20992;-79
2023/10/05 08:49:10;;;;;;;16.70;9.80;;;;;;;23.75;53.34;95717.31;5073354;28;20765;-79
2023/10/05 08:51:39;;;;;;;23.40;9.70;;;;;;;23.69;54.20;95715.38;5073320;28;20448;-79
2023/10/05 08:54:09;;;;;;;13.90;8.20;;;;;;;23.41;53.06;95718.75;5054721;28;20514;-79
2023/10/05 08:56:40;;;;;;;20.03;8.97;;;;;;;23.43;53.89;95716.75;5072918;28;20445;-79
2023/10/05 08:59:13;;;;;;;22.70;9.50;;;;;;;23.48;54.08;95711.66;5072967;28;20491;-80
2023/10/05 09:01:42;;;;;;;22.03;11.10;;;;;;;23.48;53.73;95714.31;5073063;28;20447;-80
2023/10/05 09:04:23;;;;;;;17.17;9.13;;;;;;;23.63;55.09;95708.09;5073345;28;20444;-80
2023/10/05 09:06:55;;;;;;;15.37;8.40;;;;;;;23.50;53.83;95711.44;5072664;28;20444;-80
2023/10/05 09:09:36;;;;;;;15.60;8.43;;;;;;;23.56;53.82;95707.22;5054226;28;20493;-80
2023/10/05 09:12:19;;;;;;;15.80;8.67;;;;;;;23.54;54.81;95704.69;5072244;28;20596;-80
2023/10/05 09:14:47;;;;;;;17.43;8.57;;;;;;;23.53;54.73;95702.19;5072529;28;20447;-82
2023/10/05 09:17:15;;;;;;;14.03;8.37;;;;;;;23.49;54.64;95705.25;5072340;28;20515;-79
2023/10/05 09:19:44;;;;;;;13.80;7.97;;;;;;;23.59;54.70;95704.16;5072053;28;20994;-79
2023/10/05 09:22:13;;;;;;;13.73;8.90;;;;;;;23.69;54.20;95704.66;5069452;28;20949;-78
2023/10/05 09:24:43;;;;;;;13.60;9.50;;;;;;;23.75;54.41;95703.91;5069553;28;20524;-78
2023/10/05 09:27:17;;;;;;;16.80;9.27;;;;;;;23.88;54.15;95704.03;5073039;28;20538;-79
2023/10/05 09:29:45;;;;;;;16.67;9.03;;;;;;;23.99;53.38;95700.81;5074606;28;20865;-77
2023/10/05 09:32:25;;;;;;;14.33;8.50;;;;;;;24.13;52.68;95700.94;5072833;28;20527;-78
2023/10/05 09:34:55;;;;;;;14.90;9.40;;;;;;;24.20;52.24;95688.41;5072715;28;21016;-78
2023/10/05 09:37:24;;;;;;;17.10;10.13;;;;;;;24.12;53.15;95699.28;5062229;28;20469;-77
2023/10/05 09:39:54;;;;;;;16.13;9.73;;;;;;;24.06;52.61;95685.63;5055669;28;20885;-79
2023/10/05 09:42:25;;;;;;;15.47;9.77;;;;;;;24.05;52.60;95681.28;5072626;28;20443;-82
2023/10/05 09:44:57;;;;;;;17.03;10.17;;;;;;;23.96;52.89;95668.19;5063853;28;20830;-76
2023/10/05 09:47:26;;;;;;;20.10;10.30;;;;;;;24.01;53.23;95671.97;5072018;28;20480;-77
2023/10/05 09:49:54;;;;;;;16.20;9.47;;;;;;;24.02;53.86;95670.94;5073163;28;20501;-78
2023/10/05 09:52:24;;;;;;;14.97;10.00;;;;;;;24.03;55.38;95663.75;5071069;28;20471;-81
2023/10/05 09:54:51;;;;;;;13.23;9.07;;;;;;;24.10;53.32;95660.06;5070236;28;20449;-80
2023/10/05 09:57:20;;;;;;;20.47;9.83;;;;;;;24.19;53.99;95662.59;5069132;28;20478;-77
2023/10/05 09:59:57;;;;;;;16.60;9.70;;;;;;;24.25;52.57;95649.22;5061475;28;20481;-74
2023/10/05 10:02:32;;;;;;;17.10;9.23;;;;;;;24.18;53.28;95655.59;5069216;28;20448;-74
2023/10/05 10:05:00;;;;;;;17.13;9.23;;;;;;;24.15;54.06;95645.25;5076400;28;20440;-74
2023/10/05 10:07:32;;;;;;;14.83;9.23;;;;;;;24.17;53.79;95641.34;5076329;28;20804;-76
2023/10/05 10:10:00;;;;;;;9.83;7.83;;;;;;;24.17;53.89;95633.28;5076204;28;20954;-74
2023/10/05 10:12:33;;;;;;;23.17;9.97;;;;;;;24.18;53.13;95640.31;5076224;28;20440;-77
2023/10/05 10:15:00;;;;;;;17.33;9.10;;;;;;;24.13;53.87;95639.25;5076419;28;20451;-75
2023/10/05 10:17:35;;;;;;;14.53;8.90;;;;;;;24.14;54.55;95633.69;5075933;28;20507;-74
2023/10/05 10:20:18;;;;;;;12.30;8.63;;;;;;;24.00;53.87;95634.63;5076010;28;20484;-75
2023/10/05 10:22:55;;;;;;;11.87;8.23;;;;;;;23.99;55.39;95625.72;5076009;28;20483;-74
2023/10/05 10:25:38;;;;;;;13.53;10.40;;;;;;;23.86;53.80;95624.81;5075883;28;20451;-76
2023/10/05 10:28:16;;;;;;;21.43;10.20;;;;;;;23.82;54.50;95629.75;5076131;28;20458;-74
2023/10/05 10:31:16;;;;;;;17.30;10.27;;;;;;;23.72;54.41;95627.41;5076360;28;20534;-75
2023/10/05 10:33:50;;;;;;;15.67;10.23;;;;;;;23.65;54.97;95612.25;5033546;28;20449;-76
2023/10/05 10:36:20;;;;;;;16.30;10.13;;;;;;;23.54;54.11;95610.91;5033509;28;20873;-75
2023/10/05 10:38:49;;;;;;;12.57;8.60;;;;;;;23.55;55.19;95612.56;5033429;28;20496;-75
2023/10/05 10:41:17;;;;;;;15.53;9.40;;;;;;;23.38;55.34;95606.63;5034347;28;20448;-74
2023/10/05 10:43:49;;;;;;;21.53;10.97;;;;;;;23.53;55.94;95597.72;5033439;28;20477;-74
2023/10/05 10:46:28;;;;;;;24.90;9.80;;;;;;;23.61;55.27;95592.25;5017685;28;20449;-74
2023/10/05 10:49:00;;;;;;;13.57;9.13;;;;;;;23.63;54.48;95588.34;5033214;28;20450;-74
2023/10/05 10:51:31;;;;;;;18.27;10.07;;;;;;;23.50;54.13;95580.16;5029716;28;20445;-77
2023/10/05 10:54:00;;;;;;;13.97;9.87;;;;;;;23.55;54.67;95584.94;5033247;28;20441;-74
2023/10/05 10:56:35;;;;;;;11.73;8.70;;;;;;;23.70;55.81;95574.97;5016482;28;20549;-74
2023/10/05 11:01:52;;;;;;;14.80;10.27;;;;;;;23.81;53.05;95565.59;5032967;28;20548;-74
2023/10/05 11:04:32;;;;;;;13.47;9.43;;;;;;;23.81;54.13;95568.28;4999909;28;20464;-74
2023/10/05 11:07:05;;;;;;;13.43;9.43;;;;;;;23.85;53.61;95559.66;5033115;28;20448;-75
2023/10/05 11:09:36;;;;;;;12.80;9.50;;;;;;;23.82;53.56;95548.50;5033391;28;20451;-75
2023/10/05 11:12:11;;;;;;;14.53;10.17;;;;;;;23.82;54.79;95541.28;5075156;28;20455;-74
2023/10/05 11:14:46;;;;;;;12.30;9.40;;;;;;;23.93;54.29;95545.25;5073817;28;20440;-74
2023/10/05 11:17:28;;;;;;;11.43;9.90;;;;;;;24.04;53.66;95548.25;5074938;28;20536;-74
2023/10/05 11:20:10;;;;;;;15.53;9.40;;;;;;;24.09;54.16;95540.44;5075079;28;20484;-74
2023/10/05 11:22:42;;;;;;;19.40;9.57;;;;;;;24.12;53.34;95538.38;5069570;28;20464;-77
2023/10/05 11:25:16;;;;;;;13.40;8.63;;;;;;;23.92;53.07;95533.72;5073021;28;20445;-75
2023/10/05 11:27:47;;;;;;;18.93;11.40;;;;;;;23.94;53.41;95528.97;5072575;28;20455;-78
2023/10/05 11:30:21;;;;;;;15.00;9.83;;;;;;;23.94;53.56;95528.97;5074470;28;20841;-76
2023/10/05 11:32:54;;;;;;;13.77;9.67;;;;;;;24.02;53.74;95518.13;5074770;28;20520;-76
2023/10/05 11:35:29;;;;;;;13.47;9.10;;;;;;;24.16;53.64;95518.16;5074523;28;20447;-76
2023/10/05 11:38:03;;;;;;;16.70;9.07;;;;;;;24.31;53.59;95510.88;5073402;28;20460;-76
2023/10/05 11:40:37;;;;;;;11.73;8.60;;;;;;;24.40;52.47;95515.84;5074339;28;20492;-76